createdAt,value
2023-02-27T00:08:55.398Z,85.94
2023-02-27T00:23:56.141Z,81.82
2023-02-27T00:38:56.359Z,84.19
2023-02-27T00:53:56.580Z,85.24
2023-02-27T01:08:56.754Z,84.19
2023-02-27T01:23:56.946Z,84.75
2023-02-27T01:38:57.621Z,86.06
2023-02-27T01:53:58.659Z,82.95
2023-02-27T02:08:59.820Z,85.74
2023-02-27T02:23:59.762Z,82.99
2023-02-27T02:39:00.396Z,81.40
2023-02-27T02:54:01.144Z,77.42
2023-02-27T03:09:01.310Z,75.72
2023-02-27T03:24:01.906Z,79.03
2023-02-27T03:39:01.737Z,71.88
2023-02-27T03:54:02.342Z,86.23
2023-02-27T04:09:03.452Z,89.45
2023-02-27T04:24:03.784Z,88.11
2023-02-27T04:39:04.414Z,88.21
2023-02-27T04:54:05.106Z,86.41
2023-02-27T05:09:05.339Z,84.93
2023-02-27T05:24:05.537Z,90.16
2023-02-27T05:39:06.237Z,87.98
2023-02-27T05:54:06.880Z,90.31
2023-02-27T06:09:07.077Z,85.22
2023-02-27T06:24:07.767Z,85.11
2023-02-27T06:39:08.453Z,74.38
2023-02-27T06:54:08.617Z,67.43
2023-02-27T07:09:08.862Z,58.11
2023-02-27T07:24:09.165Z,54.55
2023-02-27T07:39:09.383Z,52.80
2023-02-27T07:54:10.096Z,50.20
2023-02-27T08:09:10.315Z,50.97
2023-02-27T08:24:10.490Z,51.53
2023-02-27T08:39:10.772Z,52.42
2023-02-27T08:54:10.886Z,61.46
2023-02-27T09:09:11.180Z,74.27
2023-02-27T09:24:19.872Z,85.71
2023-02-27T09:39:16.425Z,99.99
2023-02-27T09:54:17.345Z,99.99
2023-02-27T10:09:17.047Z,99.99
2023-02-27T10:24:17.551Z,99.99
2023-02-27T10:39:17.516Z,99.99
2023-02-27T10:54:17.826Z,99.99
2023-02-27T11:09:17.928Z,98.73
2023-02-27T11:24:18.203Z,95.39
2023-02-27T11:39:18.490Z,88.45
2023-02-27T11:54:18.660Z,79.31
2023-02-27T12:09:18.885Z,69.04
2023-02-27T12:24:18.991Z,69.45
2023-02-27T12:39:19.226Z,65.55
2023-02-27T12:54:19.429Z,62.82
2023-02-27T13:09:20.205Z,63.74
2023-02-27T13:24:23.669Z,66.51
2023-02-27T13:39:24.300Z,67.40
2023-02-27T13:54:24.707Z,70.57
2023-02-27T14:09:24.794Z,71.05
2023-02-27T14:24:24.974Z,70.98
2023-02-27T14:39:25.684Z,71.94
2023-02-27T14:54:26.597Z,71.22
2023-02-27T15:09:26.663Z,74.05
2023-02-27T15:24:28.613Z,73.22
2023-02-27T15:39:30.216Z,75.95
2023-02-27T15:54:30.455Z,76.09
2023-02-27T16:09:31.002Z,77.58
2023-02-27T16:24:31.601Z,80.10
2023-02-27T16:39:31.844Z,83.60
2023-02-27T16:54:32.203Z,87.98
2023-02-27T17:09:32.632Z,90.97
2023-02-27T17:24:33.004Z,94.87
2023-02-27T17:39:33.938Z,98.39
2023-02-27T17:54:34.235Z,99.99
2023-02-27T18:09:35.006Z,99.99
2023-02-27T18:24:35.188Z,99.99
2023-02-27T18:39:35.389Z,99.99
2023-02-27T18:54:35.583Z,99.99
2023-02-27T19:09:35.782Z,99.99
2023-02-27T19:24:36.618Z,99.99
2023-02-27T19:39:37.233Z,99.99
2023-02-27T19:54:38.267Z,99.99
2023-02-27T20:09:38.868Z,99.90
2023-02-27T20:24:39.488Z,97.53
2023-02-27T20:39:40.440Z,97.31
2023-02-27T20:54:40.606Z,97.42
2023-02-27T21:09:40.845Z,98.89
2023-02-27T21:24:42.038Z,98.79
2023-02-27T21:39:42.804Z,98.83
2023-02-27T21:54:43.338Z,96.31
2023-02-27T22:09:44.644Z,97.05
2023-02-27T22:24:45.640Z,95.40
2023-02-27T22:39:46.678Z,94.29
2023-02-27T22:54:47.851Z,91.49
2023-02-27T23:09:48.636Z,91.81
2023-02-27T23:24:49.665Z,88.90
2023-02-27T23:39:51.746Z,87.28
2023-02-27T23:54:52.766Z,85.74
